Butters, North Carolina
Current Conditions -  °F | °C
As of 6:55 AM on Saturday 20 Dec 2014 (Local Time) from KEYF Reporting Station
Drizzle Drizzle  
Wind Chill: 41°   Ceiling: 7000
Heat Index: 41°   Visibility: 10mi
Dew Point: 34°   Wind: 0mph
Humidity: 77%   Direction: NA
Pressure: 30.23"   Gusts: NA
Location:  34.5603°N, 78.7711°W
Report Text: KEYF 201155Z AUTO 00000KT 10SM DZ BKN070 OVC080 05/01 A3023 RMK AO2 T00500013 10058 20046
Loading
Personal Weather Stations






























Interactive Weather Map New forecast layout! Learn more

10-Day Weather Forecast

Advertisements
Track Severe Weather on mobile